createdAt,value
2023-05-05T00:01:19.075Z,15.90
2023-05-05T00:03:46.083Z,15.80
2023-05-05T00:06:13.255Z,15.80
2023-05-05T00:08:42.000Z,15.70
2023-05-05T00:11:09.304Z,15.80
2023-05-05T00:13:36.293Z,15.70
2023-05-05T00:16:03.296Z,15.70
2023-05-05T00:18:30.531Z,15.70
2023-05-05T00:20:57.420Z,15.80
2023-05-05T00:23:24.252Z,15.70
2023-05-05T00:25:51.169Z,15.70
2023-05-05T00:28:18.330Z,15.70
2023-05-05T00:30:45.632Z,15.70
2023-05-05T00:33:12.807Z,15.70
2023-05-05T00:35:39.689Z,15.70
2023-05-05T00:38:07.884Z,15.70
2023-05-05T00:40:34.777Z,15.70
2023-05-05T00:43:03.136Z,15.70
2023-05-05T00:45:30.361Z,15.70
2023-05-05T00:47:59.187Z,15.60
2023-05-05T00:50:30.744Z,15.60
2023-05-05T00:53:03.309Z,15.60
2023-05-05T00:55:31.076Z,15.60
2023-05-05T00:58:02.783Z,15.60
2023-05-05T01:00:30.159Z,15.70
2023-05-05T01:02:57.500Z,15.70
2023-05-05T01:05:25.884Z,15.70
2023-05-05T01:08:02.978Z,15.80
2023-05-05T01:10:45.262Z,15.80
2023-05-05T01:13:44.643Z,15.70
2023-05-05T01:16:26.731Z,15.80
2023-05-05T01:19:41.309Z,15.70
2023-05-05T01:22:12.046Z,15.80
2023-05-05T01:25:00.145Z,15.80
2023-05-05T01:27:45.340Z,15.80
2023-05-05T01:30:26.396Z,15.90
2023-05-05T01:32:58.193Z,15.90
2023-05-05T01:35:30.152Z,15.90
2023-05-05T01:38:09.747Z,15.90
2023-05-05T01:40:45.354Z,15.90
2023-05-05T01:43:15.213Z,15.90
2023-05-05T01:45:45.243Z,15.90
2023-05-05T01:48:15.066Z,16.00
2023-05-05T01:50:43.026Z,16.00
2023-05-05T01:53:11.799Z,16.00
2023-05-05T01:55:39.875Z,16.00
2023-05-05T01:58:08.315Z,16.00
2023-05-05T02:00:35.525Z,16.00
2023-05-05T02:03:04.909Z,16.00
2023-05-05T02:05:34.144Z,16.00
2023-05-05T02:08:02.630Z,16.00
2023-05-05T02:10:30.562Z,16.00
2023-05-05T02:13:00.846Z,16.00
2023-05-05T02:15:29.026Z,16.00
2023-05-05T02:17:58.075Z,16.00
2023-05-05T02:20:26.812Z,16.00
2023-05-05T02:22:54.331Z,15.90
2023-05-05T02:25:22.262Z,15.90
2023-05-05T02:27:50.462Z,15.90
2023-05-05T02:30:19.852Z,15.80
2023-05-05T02:32:56.697Z,15.70
2023-05-05T02:35:29.797Z,15.70
2023-05-05T02:38:01.866Z,15.60
2023-05-05T02:40:31.786Z,15.50
2023-05-05T02:43:01.856Z,15.40
2023-05-05T02:45:29.041Z,15.30
2023-05-05T02:47:56.467Z,15.20
2023-05-05T02:50:23.323Z,15.10
2023-05-05T02:52:50.269Z,15.00
2023-05-05T02:55:17.272Z,14.90
2023-05-05T02:57:57.597Z,14.80
2023-05-05T03:01:22.091Z,14.70
2023-05-05T03:04:02.650Z,14.60
2023-05-05T03:06:32.046Z,14.50
2023-05-05T03:09:10.785Z,14.50
2023-05-05T03:11:41.095Z,14.40
2023-05-05T03:14:11.489Z,14.40
2023-05-05T03:16:40.990Z,14.30
2023-05-05T03:19:10.382Z,14.20
2023-05-05T03:21:38.846Z,14.20
2023-05-05T03:24:19.465Z,14.20
2023-05-05T03:26:48.606Z,14.10
2023-05-05T03:29:16.127Z,14.10
2023-05-05T03:31:43.070Z,14.00
2023-05-05T03:34:10.281Z,14.00
2023-05-05T03:36:37.983Z,13.90
2023-05-05T03:39:05.407Z,13.90
2023-05-05T03:41:32.264Z,13.90
2023-05-05T03:43:59.418Z,13.90
2023-05-05T03:46:26.426Z,13.80
2023-05-05T03:48:53.461Z,13.80
2023-05-05T03:51:20.381Z,13.80
2023-05-05T03:53:48.418Z,13.80
2023-05-05T03:56:15.251Z,13.80
2023-05-05T03:58:42.318Z,13.70
2023-05-05T04:01:10.691Z,13.70
2023-05-05T04:03:39.356Z,13.70
2023-05-05T04:06:06.692Z,13.70
2023-05-05T04:11:19.857Z,13.70
2023-05-05T04:16:32.117Z,13.60
2023-05-05T04:19:00.594Z,13.60
2023-05-05T04:21:27.990Z,13.60
2023-05-05T04:23:55.570Z,13.60
2023-05-05T04:26:22.483Z,13.50
2023-05-05T04:28:49.575Z,13.50
2023-05-05T04:31:16.544Z,13.50
2023-05-05T04:36:30.280Z,13.50
2023-05-05T04:38:58.511Z,13.50
2023-05-05T04:41:26.806Z,13.50
2023-05-05T04:43:55.972Z,13.50
2023-05-05T04:46:25.889Z,13.50
2023-05-05T04:48:53.117Z,13.50
2023-05-05T04:51:21.825Z,13.50
2023-05-05T04:53:48.882Z,13.60
2023-05-05T04:56:15.821Z,13.60
2023-05-05T04:58:42.737Z,13.60
2023-05-05T05:01:11.419Z,13.70
2023-05-05T05:03:38.426Z,13.70
2023-05-05T05:06:05.367Z,13.80
2023-05-05T05:08:32.582Z,13.80
2023-05-05T05:11:01.725Z,13.80
2023-05-05T05:13:30.711Z,13.90
2023-05-05T05:15:57.889Z,13.90
2023-05-05T05:18:25.945Z,14.00
2023-05-05T05:20:58.797Z,14.10
2023-05-05T05:23:25.705Z,14.20
2023-05-05T05:25:56.254Z,14.50
2023-05-05T05:28:23.922Z,14.80
2023-05-05T05:30:52.043Z,15.10
2023-05-05T05:33:20.156Z,15.40
2023-05-05T05:35:47.001Z,15.60
2023-05-05T05:38:13.781Z,16.00
2023-05-05T05:40:41.225Z,16.20
2023-05-05T05:43:09.680Z,16.50
2023-05-05T05:45:36.563Z,16.70
2023-05-05T05:48:03.790Z,17.00
2023-05-05T05:50:31.783Z,17.30
2023-05-05T05:52:58.602Z,17.60
2023-05-05T05:55:25.466Z,17.90
2023-05-05T05:57:52.344Z,18.20
2023-05-05T06:00:19.360Z,18.50
2023-05-05T06:02:46.107Z,18.80
2023-05-05T06:05:13.322Z,19.10
2023-05-05T06:07:40.155Z,19.40
2023-05-05T06:10:25.155Z,19.70
2023-05-05T06:12:54.414Z,20.00
2023-05-05T06:15:21.294Z,20.40
2023-05-05T06:17:48.211Z,20.60
2023-05-05T06:20:15.132Z,20.80
2023-05-05T06:22:42.174Z,21.10
2023-05-05T06:25:09.182Z,21.50
2023-05-05T06:27:36.379Z,21.70
2023-05-05T06:30:03.352Z,22.00
2023-05-05T06:32:30.169Z,22.20
2023-05-05T06:34:57.139Z,22.40
2023-05-05T06:37:24.247Z,22.70
2023-05-05T06:39:54.552Z,23.00
2023-05-05T06:42:22.367Z,23.20
2023-05-05T06:44:51.662Z,23.50
2023-05-05T06:47:21.394Z,23.60
2023-05-05T06:49:48.693Z,23.70
2023-05-05T06:52:16.533Z,24.00
2023-05-05T06:54:44.145Z,24.20
2023-05-05T06:57:14.285Z,24.30
2023-05-05T06:59:42.853Z,24.50
2023-05-05T07:02:10.146Z,25.00
2023-05-05T07:04:37.688Z,25.20
2023-05-05T07:07:05.998Z,25.40
2023-05-05T07:09:33.204Z,25.60
2023-05-05T07:12:00.412Z,25.90
2023-05-05T07:14:28.348Z,26.10
2023-05-05T07:16:55.361Z,26.40
2023-05-05T07:19:24.786Z,26.70
2023-05-05T07:21:52.448Z,27.10
2023-05-05T07:24:20.143Z,27.50
2023-05-05T07:26:50.292Z,27.80
2023-05-05T07:29:18.451Z,28.10
2023-05-05T07:31:46.261Z,28.20
2023-05-05T07:34:13.669Z,28.40
2023-05-05T07:36:45.530Z,28.90
2023-05-05T07:39:15.377Z,29.10
2023-05-05T07:41:43.673Z,29.00
2023-05-05T07:44:12.859Z,29.30
2023-05-05T07:46:40.421Z,29.70
2023-05-05T07:49:08.849Z,30.00
2023-05-05T07:51:35.794Z,30.30
2023-05-05T07:54:02.927Z,30.30
2023-05-05T07:56:42.324Z,30.20
2023-05-05T07:59:10.092Z,30.10
2023-05-05T08:01:43.158Z,30.30
2023-05-05T08:04:10.952Z,30.30
2023-05-05T08:06:44.976Z,30.90
2023-05-05T08:09:19.537Z,31.30
2023-05-05T08:11:47.173Z,31.50
2023-05-05T08:14:15.670Z,31.90
2023-05-05T08:16:44.757Z,32.10
2023-05-05T08:19:27.478Z,32.30
2023-05-05T08:21:56.175Z,32.60
2023-05-05T08:24:23.303Z,32.30
2023-05-05T08:26:50.372Z,32.80
2023-05-05T08:29:17.613Z,33.10
2023-05-05T08:31:46.756Z,32.40
2023-05-05T08:34:14.847Z,31.60
2023-05-05T08:36:41.871Z,30.50
2023-05-05T08:39:08.992Z,30.10
2023-05-05T08:41:36.102Z,31.40
2023-05-05T08:44:04.342Z,31.50
2023-05-05T08:46:33.050Z,30.60
2023-05-05T08:49:02.192Z,29.50
2023-05-05T08:51:37.151Z,28.60
2023-05-05T08:54:07.710Z,27.70
2023-05-05T08:56:42.538Z,27.10
2023-05-05T08:59:19.337Z,26.70
2023-05-05T09:01:47.681Z,26.50
2023-05-05T09:04:27.794Z,26.30
2023-05-05T09:06:57.412Z,25.80
2023-05-05T09:09:24.965Z,25.40
2023-05-05T09:11:54.093Z,25.00
2023-05-05T09:14:22.630Z,24.50
2023-05-05T09:17:08.580Z,24.20
2023-05-05T09:20:07.213Z,23.90
2023-05-05T09:22:41.649Z,23.90
2023-05-05T09:25:17.558Z,23.90
2023-05-05T09:27:47.784Z,24.30
2023-05-05T09:30:18.115Z,24.50
2023-05-05T09:32:47.631Z,25.00
2023-05-05T09:35:15.363Z,25.50
2023-05-05T09:37:43.277Z,26.00
2023-05-05T09:40:14.299Z,26.20
2023-05-05T09:42:44.934Z,25.80
2023-05-05T09:45:30.573Z,25.40
2023-05-05T09:48:00.890Z,25.10
2023-05-05T09:50:31.232Z,24.70
2023-05-05T09:53:08.522Z,24.30
2023-05-05T09:55:38.855Z,23.90
2023-05-05T09:58:26.976Z,23.50
2023-05-05T10:00:58.164Z,23.00
2023-05-05T10:03:26.190Z,22.40
2023-05-05T10:05:58.389Z,21.50
2023-05-05T10:08:34.483Z,20.50
2023-05-05T10:11:07.360Z,19.50
2023-05-05T10:13:40.130Z,18.80
2023-05-05T10:16:09.540Z,18.30
2023-05-05T10:18:40.242Z,17.90
2023-05-05T10:21:08.811Z,17.60
2023-05-05T10:23:46.434Z,17.50
2023-05-05T10:26:15.124Z,17.40
2023-05-05T10:28:46.256Z,17.40
2023-05-05T10:31:32.136Z,17.50
2023-05-05T10:34:09.069Z,17.50
2023-05-05T10:36:39.071Z,17.60
2023-05-05T10:39:10.873Z,17.80
2023-05-05T10:41:39.521Z,17.80
2023-05-05T10:44:10.817Z,17.80
2023-05-05T10:46:38.389Z,17.90
2023-05-05T10:49:29.745Z,17.90
2023-05-05T10:52:02.449Z,17.80
2023-05-05T10:55:02.095Z,17.80
2023-05-05T10:57:31.201Z,17.70
2023-05-05T10:59:58.054Z,17.60
2023-05-05T11:02:30.758Z,17.60
2023-05-05T11:05:17.477Z,17.60
2023-05-05T11:07:46.635Z,17.60
2023-05-05T11:10:15.591Z,17.50
2023-05-05T11:12:52.248Z,17.40
2023-05-05T11:15:31.498Z,17.40
2023-05-05T11:18:05.892Z,17.30
2023-05-05T11:20:41.181Z,17.30
2023-05-05T11:23:08.151Z,17.30
2023-05-05T11:25:35.443Z,17.20
2023-05-05T11:28:13.008Z,17.10
2023-05-05T11:30:55.337Z,17.20
2023-05-05T11:33:52.088Z,17.20
2023-05-05T11:36:21.161Z,17.20
2023-05-05T11:39:02.604Z,17.10
2023-05-05T11:41:32.374Z,17.10
2023-05-05T11:44:11.449Z,17.00
2023-05-05T11:46:43.371Z,17.00
2023-05-05T11:49:10.687Z,17.00
2023-05-05T11:51:38.113Z,17.00
2023-05-05T11:54:05.376Z,17.00
2023-05-05T11:56:35.504Z,17.00
2023-05-05T11:59:10.849Z,17.10
2023-05-05T12:01:41.923Z,17.10
2023-05-05T12:04:15.665Z,17.10
2023-05-05T12:06:45.790Z,17.10
2023-05-05T12:09:16.495Z,17.10
2023-05-05T12:11:53.962Z,17.00
2023-05-05T12:14:21.829Z,17.00
2023-05-05T12:17:08.533Z,16.90
2023-05-05T12:19:36.575Z,16.90
2023-05-05T12:22:04.811Z,16.80
2023-05-05T12:24:36.116Z,16.80
2023-05-05T12:27:09.682Z,16.80
2023-05-05T12:29:36.816Z,16.80
2023-05-05T12:32:04.682Z,16.80
2023-05-05T12:34:36.653Z,16.80
2023-05-05T12:37:04.768Z,16.90
2023-05-05T12:39:37.459Z,16.80
2023-05-05T12:42:05.637Z,16.90
2023-05-05T12:44:40.896Z,17.00
2023-05-05T12:47:07.849Z,17.10
2023-05-05T12:49:50.012Z,17.00
2023-05-05T12:52:17.519Z,17.00
2023-05-05T12:55:14.471Z,16.90
2023-05-05T12:58:05.446Z,16.80
2023-05-05T13:00:33.241Z,16.80
2023-05-05T13:03:00.592Z,16.80
2023-05-05T13:05:36.699Z,16.80
2023-05-05T13:08:03.963Z,16.80
2023-05-05T13:10:32.809Z,16.70
2023-05-05T13:13:00.050Z,16.70
2023-05-05T13:15:28.126Z,16.70
2023-05-05T13:18:01.915Z,16.70
2023-05-05T13:20:29.037Z,16.60
2023-05-05T13:22:56.359Z,16.60
2023-05-05T13:25:23.238Z,16.60
2023-05-05T13:27:50.668Z,16.60
2023-05-05T13:30:17.637Z,16.60
2023-05-05T13:32:44.544Z,16.60
2023-05-05T13:35:13.897Z,16.50
2023-05-05T13:37:42.653Z,16.60
2023-05-05T13:40:11.122Z,16.50
2023-05-05T13:42:37.934Z,16.40
2023-05-05T13:45:06.058Z,16.40
2023-05-05T13:47:34.633Z,16.40
2023-05-05T13:50:11.932Z,16.30
2023-05-05T13:52:40.440Z,16.30
2023-05-05T13:55:11.665Z,16.20
2023-05-05T13:57:40.208Z,16.20
2023-05-05T14:00:12.919Z,16.20
2023-05-05T14:02:39.977Z,16.10
2023-05-05T14:05:08.058Z,16.10
2023-05-05T14:07:34.954Z,16.00
2023-05-05T14:10:01.862Z,15.90
2023-05-05T14:12:28.692Z,15.80
2023-05-05T14:14:55.558Z,15.80
2023-05-05T14:17:23.182Z,15.70
2023-05-05T14:19:51.017Z,15.70
2023-05-05T14:22:18.029Z,15.70
2023-05-05T14:24:45.031Z,15.70
2023-05-05T14:27:16.959Z,15.80
2023-05-05T14:29:44.137Z,15.80
2023-05-05T14:32:11.328Z,15.80
2023-05-05T14:34:41.568Z,15.80
2023-05-05T14:37:08.484Z,15.80
2023-05-05T14:39:40.055Z,15.80
2023-05-05T14:42:07.280Z,15.90
2023-05-05T14:44:34.322Z,15.90
2023-05-05T14:47:01.197Z,16.10
2023-05-05T14:49:28.209Z,16.30
2023-05-05T14:51:56.691Z,16.50
2023-05-05T14:54:28.345Z,16.60
2023-05-05T14:56:56.550Z,16.80
2023-05-05T14:59:32.089Z,17.00
2023-05-05T15:02:00.112Z,17.20
2023-05-05T15:04:27.286Z,17.10
2023-05-05T15:06:54.152Z,17.10
2023-05-05T15:09:27.434Z,17.10
2023-05-05T15:11:54.364Z,17.10
2023-05-05T15:14:21.309Z,17.10
2023-05-05T15:16:48.344Z,17.20
2023-05-05T15:19:15.457Z,17.30
2023-05-05T15:21:44.179Z,17.50
2023-05-05T15:24:11.451Z,17.60
2023-05-05T15:26:38.581Z,17.70
2023-05-05T15:29:06.447Z,17.80
2023-05-05T15:31:33.461Z,17.90
2023-05-05T15:34:00.297Z,17.90
2023-05-05T15:36:28.817Z,18.00
2023-05-05T15:38:56.500Z,18.10
2023-05-05T15:41:26.827Z,18.10
2023-05-05T15:43:53.807Z,18.00
2023-05-05T15:46:24.129Z,18.00
2023-05-05T15:48:51.538Z,18.20
2023-05-05T15:51:19.515Z,18.20
2023-05-05T15:53:46.888Z,18.30
2023-05-05T15:56:14.181Z,18.30
2023-05-05T15:58:41.035Z,18.30
2023-05-05T16:01:08.116Z,18.30
2023-05-05T16:03:37.519Z,18.40
2023-05-05T16:06:06.455Z,18.40
2023-05-05T16:08:36.986Z,18.40
2023-05-05T16:11:27.188Z,18.50
2023-05-05T16:13:55.488Z,18.50
2023-05-05T16:16:27.798Z,18.60
2023-05-05T16:18:54.929Z,18.50
2023-05-05T16:21:22.993Z,18.40
2023-05-05T16:23:51.483Z,18.30
2023-05-05T16:26:18.563Z,18.10
2023-05-05T16:28:45.724Z,18.00
2023-05-05T16:31:16.086Z,17.90
2023-05-05T16:33:44.157Z,17.80
2023-05-05T16:36:13.536Z,17.80
2023-05-05T16:38:41.265Z,17.80
2023-05-05T16:41:16.151Z,17.70
2023-05-05T16:43:50.798Z,17.70
2023-05-05T16:46:18.497Z,17.60
2023-05-05T16:48:46.218Z,17.50
2023-05-05T16:51:14.230Z,17.50
2023-05-05T16:53:47.557Z,17.40
2023-05-05T16:56:17.244Z,17.20
2023-05-05T16:58:47.873Z,17.20
2023-05-05T17:01:15.702Z,17.10
2023-05-05T17:03:42.626Z,17.00
2023-05-05T17:06:09.919Z,17.00
2023-05-05T17:08:37.160Z,16.90
2023-05-05T17:11:04.309Z,16.90
2023-05-05T17:13:33.240Z,16.80
2023-05-05T17:16:01.131Z,16.80
2023-05-05T17:18:29.183Z,16.70
2023-05-05T17:20:56.507Z,16.70
2023-05-05T17:23:23.486Z,16.70
2023-05-05T17:25:55.732Z,16.70
2023-05-05T17:28:23.700Z,16.70
2023-05-05T17:30:52.022Z,16.80
2023-05-05T17:33:22.033Z,16.80
2023-05-05T17:35:57.417Z,16.80
2023-05-05T17:38:26.180Z,16.80
2023-05-05T17:40:53.306Z,16.80
2023-05-05T17:43:20.537Z,16.80
2023-05-05T17:45:47.696Z,16.70
2023-05-05T17:48:31.942Z,16.70
2023-05-05T17:50:59.362Z,16.70
2023-05-05T17:53:29.967Z,16.60
2023-05-05T17:56:00.068Z,16.60
2023-05-05T17:58:28.043Z,16.60
2023-05-05T18:00:55.009Z,16.50
2023-05-05T18:03:21.968Z,16.50
2023-05-05T18:05:53.480Z,16.50
2023-05-05T18:08:23.900Z,16.40
2023-05-05T18:10:51.141Z,16.30
2023-05-05T18:13:22.118Z,16.30
2023-05-05T18:15:49.037Z,16.20
2023-05-05T18:18:18.172Z,16.20
2023-05-05T18:20:44.937Z,16.20
2023-05-05T18:23:13.042Z,16.10
2023-05-05T18:25:41.498Z,16.10
2023-05-05T18:28:10.175Z,16.10
2023-05-05T18:30:38.517Z,16.00
2023-05-05T18:33:05.812Z,15.90
2023-05-05T18:35:33.080Z,15.80
2023-05-05T18:38:01.140Z,15.80
2023-05-05T18:40:31.898Z,15.80
2023-05-05T18:43:00.707Z,15.70
2023-05-05T18:45:29.402Z,15.60
2023-05-05T18:47:56.529Z,15.60
2023-05-05T18:50:23.687Z,15.50
2023-05-05T18:52:51.655Z,15.40
2023-05-05T18:55:19.154Z,15.30
2023-05-05T19:00:27.229Z,15.20
2023-05-05T19:02:54.596Z,15.10
2023-05-05T19:05:24.075Z,15.00
2023-05-05T19:07:54.907Z,14.90
2023-05-05T19:10:24.146Z,14.80
2023-05-05T19:12:57.458Z,14.80
2023-05-05T19:15:24.803Z,14.70
2023-05-05T19:17:53.659Z,14.60
2023-05-05T19:20:22.357Z,14.60
2023-05-05T19:22:49.745Z,14.50
2023-05-05T19:25:19.554Z,14.40
2023-05-05T19:27:46.432Z,14.30
2023-05-05T19:30:13.634Z,14.20
2023-05-05T19:32:42.338Z,14.20
2023-05-05T19:35:12.139Z,14.10
2023-05-05T19:37:40.087Z,14.10
2023-05-05T19:40:08.553Z,14.00
2023-05-05T19:42:43.067Z,14.00
2023-05-05T19:45:26.947Z,13.90
2023-05-05T19:47:53.976Z,13.90
2023-05-05T19:50:21.544Z,13.80
2023-05-05T19:52:48.711Z,13.70
2023-05-05T19:55:16.209Z,13.70
2023-05-05T19:57:45.309Z,13.70
2023-05-05T20:00:13.400Z,13.60
2023-05-05T20:02:45.697Z,13.60
2023-05-05T20:05:17.668Z,13.50
2023-05-05T20:07:47.029Z,13.50
2023-05-05T20:10:14.833Z,13.50
2023-05-05T20:12:48.532Z,13.50
2023-05-05T20:15:18.927Z,13.50
2023-05-05T20:17:49.120Z,13.50
2023-05-05T20:20:18.840Z,13.40
2023-05-05T20:22:46.647Z,13.40
2023-05-05T20:25:17.152Z,13.40
2023-05-05T20:27:45.769Z,13.30
2023-05-05T20:30:13.181Z,13.30
2023-05-05T20:32:41.193Z,13.20
2023-05-05T20:35:08.846Z,13.20
2023-05-05T20:37:35.745Z,13.20
2023-05-05T20:40:02.679Z,13.20
2023-05-05T20:42:30.480Z,13.10
2023-05-05T20:44:58.745Z,13.10
2023-05-05T20:47:27.081Z,13.10
2023-05-05T20:49:54.753Z,13.00
2023-05-05T20:52:23.072Z,13.00
2023-05-05T20:54:50.963Z,13.00
2023-05-05T20:57:18.024Z,13.00
2023-05-05T20:59:45.101Z,12.90
2023-05-05T21:02:12.213Z,12.90
2023-05-05T21:04:40.588Z,12.90
2023-05-05T21:07:10.557Z,12.90
2023-05-05T21:09:40.046Z,12.90
2023-05-05T21:12:07.288Z,12.90
2023-05-05T21:14:34.169Z,12.90
2023-05-05T21:17:01.263Z,12.80
2023-05-05T21:19:28.104Z,12.80
2023-05-05T21:21:59.185Z,12.70
2023-05-05T21:24:27.734Z,12.70
2023-05-05T21:26:56.385Z,12.70
2023-05-05T21:29:24.776Z,12.70
2023-05-05T21:31:52.021Z,12.60
2023-05-05T21:34:22.069Z,12.60
2023-05-05T21:36:48.927Z,12.60
2023-05-05T21:39:15.913Z,12.50
2023-05-05T21:41:44.461Z,12.50
2023-05-05T21:44:11.338Z,12.40
2023-05-05T21:46:38.643Z,12.40
2023-05-05T21:49:14.028Z,12.30
2023-05-05T21:51:42.078Z,12.30
2023-05-05T21:54:11.529Z,12.30
2023-05-05T21:56:43.791Z,12.20
2023-05-05T21:59:11.225Z,12.20
2023-05-05T22:01:38.235Z,12.20
2023-05-05T22:04:05.451Z,12.20
2023-05-05T22:06:32.764Z,12.20
2023-05-05T22:08:59.795Z,12.20
2023-05-05T22:11:26.740Z,12.10
2023-05-05T22:13:54.407Z,12.10
2023-05-05T22:16:21.315Z,12.10
2023-05-05T22:18:48.528Z,12.10
2023-05-05T22:21:15.677Z,12.10
2023-05-05T22:23:42.564Z,12.10
2023-05-05T22:26:10.438Z,12.10
2023-05-05T22:28:38.392Z,12.20
2023-05-05T22:31:05.548Z,12.30
2023-05-05T22:33:33.147Z,12.30
2023-05-05T22:36:00.035Z,12.40
2023-05-05T22:38:27.023Z,12.40
2023-05-05T22:40:53.833Z,12.30
2023-05-05T22:43:20.810Z,12.30
2023-05-05T22:45:47.920Z,12.30
2023-05-05T22:48:15.122Z,12.30
2023-05-05T22:50:43.360Z,12.30
2023-05-05T22:53:16.971Z,12.30
2023-05-05T22:55:43.846Z,12.40
2023-05-05T22:58:11.140Z,12.40
2023-05-05T23:00:37.986Z,12.40
2023-05-05T23:03:04.985Z,12.50
2023-05-05T23:05:32.068Z,12.40
2023-05-05T23:08:01.648Z,12.40
2023-05-05T23:10:29.296Z,12.40
2023-05-05T23:12:58.324Z,12.40
2023-05-05T23:15:25.794Z,12.40
2023-05-05T23:17:53.002Z,12.40
2023-05-05T23:20:23.887Z,12.40
2023-05-05T23:22:53.752Z,12.40
2023-05-05T23:25:21.166Z,12.30
2023-05-05T23:27:51.402Z,12.30
2023-05-05T23:30:18.880Z,12.20
2023-05-05T23:32:46.112Z,12.30
2023-05-05T23:35:13.494Z,12.30
2023-05-05T23:37:42.297Z,12.40
2023-05-05T23:40:10.516Z,12.40
2023-05-05T23:42:37.402Z,12.40
2023-05-05T23:45:08.706Z,12.40
2023-05-05T23:47:35.997Z,12.40
2023-05-05T23:50:03.639Z,12.30
2023-05-05T23:52:30.554Z,12.20
2023-05-05T23:54:57.455Z,12.20
2023-05-05T23:57:24.266Z,12.20
2023-05-05T23:59:51.449Z,12.20
